Time;durP1;ratioP1;P1;durP2;ratioP2;P2;SDS_P1;SDS_P2;PMS_P1;PMS_P2;Temp;Humidity;BMP_temperature;BMP_pressure;BME280_temperature;BME280_humidity;BME280_pressure;Samples;Min_cycle;Max_cycle;Signal;HPM_P1;HPM_P2
2022/04/29 00:02:10;;;;;;;18.35;5.97;;;;;;;4.79;100.00;102564.22;4994470;28;20501;-72
2022/04/29 00:04:36;;;;;;;13.85;6.53;;;;;;;4.74;100.00;102569.75;4959149;28;20038;-72
2022/04/29 00:07:02;;;;;;;;;;;;;;;4.72;100.00;102573.41;4997674;28;20038;-73
2022/04/29 00:09:27;;;;;;;;;;;;;;;4.71;100.00;102574.38;4995025;28;20032;-73
2022/04/29 00:11:54;;;;;;;24.83;6.18;;;;;;;4.68;100.00;102578.00;4979003;28;20008;-73
2022/04/29 00:14:19;;;;;;;;;;;;;;;4.62;100.00;102592.41;4993705;28;20022;-73
2022/04/29 00:16:45;;;;;;;15.77;6.07;;;;;;;4.61;100.00;102595.13;4994041;28;20258;-73
2022/04/29 00:19:10;;;;;;;22.33;6.57;;;;;;;4.63;100.00;102596.75;4991210;28;20101;-73
2022/04/29 00:21:36;;;;;;;15.23;6.17;;;;;;;4.60;100.00;102593.44;4993207;28;20038;-72
2022/04/29 00:24:01;;;;;;;25.13;6.97;;;;;;;4.59;100.00;102587.28;4980365;28;20475;-73
2022/04/29 00:26:27;;;;;;;21.60;6.63;;;;;;;4.58;100.00;102590.84;4981420;28;20131;-73
2022/04/29 00:28:52;;;;;;;18.10;7.30;;;;;;;4.61;100.00;102581.91;4978468;28;20031;-72
2022/04/29 00:31:17;;;;;;;19.47;6.43;;;;;;;4.56;100.00;102579.47;4959420;28;20614;-73
2022/04/29 00:33:43;;;;;;;20.37;8.20;;;;;;;4.74;100.00;102582.13;4978009;28;20042;-73
2022/04/29 00:36:08;;;;;;;26.20;9.57;;;;;;;4.75;100.00;102589.13;4997942;28;20041;-73
2022/04/29 00:38:34;;;;;;;18.97;6.90;;;;;;;4.68;100.00;102599.16;4980286;28;20025;-72
2022/04/29 00:40:59;;;;;;;25.27;8.73;;;;;;;4.71;100.00;102596.38;4957733;28;20042;-73
2022/04/29 00:43:24;;;;;;;18.93;8.37;;;;;;;4.70;100.00;102602.59;4974969;28;20033;-72
2022/04/29 00:45:51;;;;;;;14.83;7.90;;;;;;;4.74;100.00;102600.66;4997222;28;20030;-73
2022/04/29 00:48:17;;;;;;;;;;;;;;;4.89;100.00;102606.94;4994716;28;20698;-73
2022/04/29 00:50:44;;;;;;;19.10;8.23;;;;;;;4.84;100.00;102604.53;4960187;28;19924;-72
2022/04/29 00:53:12;;;;;;;18.60;7.32;;;;;;;4.84;100.00;102596.59;4993958;28;20025;-72
2022/04/29 00:55:44;;;;;;;20.38;7.20;;;;;;;4.77;100.00;102595.19;4959055;28;20038;-73
2022/04/29 00:58:17;;;;;;;18.90;6.97;;;;;;;4.74;100.00;102593.56;4995575;28;20037;-73
2022/04/29 01:00:43;;;;;;;22.98;8.23;;;;;;;4.67;100.00;102597.47;4962575;28;20038;-73
2022/04/29 01:03:12;;;;;;;;;;;;;;;4.69;100.00;102587.66;4976945;28;20026;-72
2022/04/29 01:05:40;;;;;;;17.30;6.95;;;;;;;4.68;100.00;102595.66;4959107;28;19918;-72
2022/04/29 01:08:06;;;;;;;19.58;7.30;;;;;;;4.60;100.00;102594.28;4977228;28;20018;-73
2022/04/29 01:10:32;;;;;;;14.75;7.10;;;;;;;4.56;100.00;102590.06;4963260;28;20034;-73
2022/04/29 01:13:00;;;;;;;13.88;7.72;;;;;;;4.48;100.00;102576.38;4960412;28;20913;-73
2022/04/29 01:15:26;;;;;;;15.60;7.65;;;;;;;4.57;100.00;102586.50;4976364;28;20069;-72
2022/04/29 01:17:54;;;;;;;23.27;8.80;;;;;;;4.70;100.00;102577.94;4978755;28;20027;-72
2022/04/29 01:20:24;;;;;;;23.15;9.27;;;;;;;4.69;100.00;102571.78;4979981;28;20044;-73
2022/04/29 01:22:50;;;;;;;21.33;8.23;;;;;;;4.64;100.00;102566.72;4958644;28;20042;-72
2022/04/29 01:25:15;;;;;;;15.17;7.73;;;;;;;4.65;100.00;102572.88;4983751;28;20018;-73
2022/04/29 01:27:49;;;;;;;21.13;7.72;;;;;;;4.60;100.00;102564.31;4978583;28;20037;-73
2022/04/29 01:30:18;;;;;;;20.70;8.75;;;;;;;4.56;100.00;102557.47;4963029;28;20034;-73
2022/04/29 01:32:45;;;;;;;22.70;9.02;;;;;;;4.65;100.00;102573.72;4963167;28;20439;-73
2022/04/29 01:35:12;;;;;;;25.33;8.82;;;;;;;4.60;100.00;102562.53;4979755;28;20738;-72
2022/04/29 01:37:38;;;;;;;20.38;8.55;;;;;;;4.72;100.00;102563.69;4983076;28;20897;-73
2022/04/29 01:40:06;;;;;;;23.95;7.93;;;;;;;4.64;100.00;102565.88;4960683;28;20039;-73
2022/04/29 01:42:31;;;;;;;17.45;7.78;;;;;;;4.68;100.00;102562.13;4974106;28;20526;-73
2022/04/29 01:44:56;;;;;;;19.98;7.65;;;;;;;4.71;100.00;102561.97;4980875;28;20101;-73
2022/04/29 01:47:22;;;;;;;20.00;8.18;;;;;;;4.69;100.00;102558.56;4974831;28;20042;-72
2022/04/29 01:49:59;;;;;;;18.83;7.53;;;;;;;4.61;100.00;102551.03;4982462;28;20528;-73
2022/04/29 01:52:25;;;;;;;17.27;8.05;;;;;;;4.50;100.00;102553.38;4979633;28;20033;-74
2022/04/29 01:54:51;;;;;;;24.58;8.80;;;;;;;4.65;100.00;102554.34;4981721;28;20069;-73
2022/04/29 01:57:17;;;;;;;16.13;8.07;;;;;;;4.58;100.00;102555.59;4983046;28;20028;-72
2022/04/29 01:59:42;;;;;;;30.13;9.73;;;;;;;4.60;100.00;102567.81;4974867;28;20376;-73
2022/04/29 02:02:25;;;;;;;18.80;7.88;;;;;;;4.66;100.00;102569.31;4953933;28;20041;-73
2022/04/29 02:04:50;;;;;;;19.85;9.07;;;;;;;4.57;100.00;102560.06;4998657;28;20041;-73
2022/04/29 02:07:17;;;;;;;22.83;7.72;;;;;;;4.57;100.00;102559.19;4960597;28;20037;-73
2022/04/29 02:09:44;;;;;;;24.50;8.65;;;;;;;4.43;100.00;102558.09;4978164;28;20484;-72
2022/04/29 02:12:11;;;;;;;21.52;8.90;;;;;;;4.47;100.00;102547.38;4979212;28;20049;-73
2022/04/29 02:14:55;;;;;;;22.67;8.83;;;;;;;4.42;100.00;102540.53;4997865;28;20412;-72
2022/04/29 02:17:24;;;;;;;19.13;7.75;;;;;;;4.30;100.00;102538.50;4975829;28;20687;-72
2022/04/29 02:19:50;;;;;;;;;;;;;;;4.37;100.00;102539.91;4978639;28;20400;-73
2022/04/29 02:22:16;;;;;;;;;;;;;;;4.26;100.00;102544.03;4981116;28;19914;-73
2022/04/29 02:24:42;;;;;;;12.48;6.03;;;;;;;4.26;100.00;102544.03;4977154;28;19913;-72
2022/04/29 02:27:08;;;;;;;21.03;8.97;;;;;;;4.16;100.00;102543.63;4963010;28;20676;-73
2022/04/29 02:29:36;;;;;;;20.20;8.68;;;;;;;4.18;100.00;102553.19;4966255;28;20431;-73
2022/04/29 02:32:09;;;;;;;30.60;7.90;;;;;;;4.20;100.00;102553.13;4978864;28;20035;-72
2022/04/29 02:34:36;;;;;;;19.63;9.03;;;;;;;4.21;100.00;102550.41;4993822;28;20026;-72
2022/04/29 02:37:03;;;;;;;18.60;8.23;;;;;;;4.17;100.00;102546.22;4979989;28;20032;-73
2022/04/29 02:39:28;;;;;;;19.13;7.93;;;;;;;4.13;100.00;102544.66;4976775;28;20045;-73
2022/04/29 02:41:57;;;;;;;18.50;7.55;;;;;;;4.17;100.00;102546.22;4997617;28;20085;-73
2022/04/29 02:44:23;;;;;;;16.27;7.63;;;;;;;4.30;100.00;102550.88;4982221;28;20045;-73
2022/04/29 02:47:06;;;;;;;17.08;8.02;;;;;;;4.29;100.00;102551.81;4980161;28;20030;-73
2022/04/29 02:49:32;;;;;;;17.67;7.97;;;;;;;4.23;100.00;102551.16;4978872;28;20034;-73
2022/04/29 02:51:58;;;;;;;16.55;7.60;;;;;;;4.22;100.00;102541.53;4981631;28;20394;-72
2022/04/29 02:54:23;;;;;;;20.93;8.50;;;;;;;4.35;100.00;102532.97;4978513;28;20120;-73
2022/04/29 02:56:51;;;;;;;23.50;8.40;;;;;;;4.31;100.00;102528.78;4961722;28;20031;-73
2022/04/29 02:59:30;;;;;;;24.27;9.55;;;;;;;4.22;100.00;102533.63;4999465;28;20037;-74
2022/04/29 03:01:56;;;;;;;17.92;7.97;;;;;;;4.24;100.00;102530.91;4960921;28;20025;-73
2022/04/29 03:04:22;;;;;;;18.97;8.20;;;;;;;4.25;100.00;102531.75;4976620;28;20510;-73
2022/04/29 03:06:47;;;;;;;17.17;7.72;;;;;;;4.20;100.00;102540.75;4994874;28;20034;-73
2022/04/29 03:09:13;;;;;;;20.40;9.00;;;;;;;4.19;100.00;102540.81;4979692;28;20034;-72
2022/04/29 03:11:38;;;;;;;20.47;8.20;;;;;;;4.30;100.00;102535.00;4994127;28;20041;-73
2022/04/29 03:14:04;;;;;;;21.60;9.18;;;;;;;4.28;100.00;102523.66;4979250;28;20375;-73
2022/04/29 03:16:30;;;;;;;20.25;7.68;;;;;;;4.30;100.00;102522.63;4994728;28;20042;-72
2022/04/29 03:18:56;;;;;;;21.33;6.93;;;;;;;4.23;100.00;102524.72;4981283;28;20022;-73
2022/04/29 03:21:22;;;;;;;20.97;8.10;;;;;;;4.19;100.00;102523.19;4996667;28;20033;-73
2022/04/29 03:23:48;;;;;;;;;;;;;;;4.18;100.00;102533.84;4979774;28;20288;-73
2022/04/29 03:26:13;;;;;;;;;;;;;;;4.09;100.00;102526.38;4996026;28;19914;-73
2022/04/29 03:28:39;;;;;;;19.70;7.57;;;;;;;4.17;100.00;102530.34;4978490;28;20455;-72
2022/04/29 03:31:05;;;;;;;18.88;8.30;;;;;;;4.18;100.00;102526.75;4978075;28;20499;-73
2022/04/29 03:33:51;;;;;;;24.98;9.38;;;;;;;4.06;100.00;102518.59;4987318;28;20049;-73
2022/04/29 03:36:16;;;;;;;19.43;7.60;;;;;;;4.10;100.00;102525.47;4977042;28;20475;-72
2022/04/29 03:38:44;;;;;;;20.70;8.68;;;;;;;3.96;100.00;102520.84;4978996;28;20025;-73
2022/04/29 03:41:12;;;;;;;19.23;7.07;;;;;;;3.98;100.00;102514.56;4965288;28;20034;-73
2022/04/29 03:43:38;;;;;;;21.63;7.23;;;;;;;3.97;100.00;102518.13;4957214;28;20529;-72
2022/04/29 03:46:07;;;;;;;21.70;7.93;;;;;;;3.90;100.00;102527.28;4978843;28;20040;-73
2022/04/29 03:51:47;;;;;;;17.10;7.00;;;;;;;3.80;100.00;102516.31;4969707;28;20034;-72
2022/04/29 03:54:13;;;;;;;27.10;8.23;;;;;;;3.96;100.00;102526.13;4960834;28;20814;-73
2022/04/29 03:56:42;;;;;;;17.63;8.40;;;;;;;3.89;100.00;102515.00;5012792;23;20529;-75
2022/04/29 03:59:09;;;;;;;14.23;6.78;;;;;;;3.91;100.00;102518.44;4989201;28;20039;-74
2022/04/29 04:01:36;;;;;;;20.45;7.68;;;;;;;3.83;100.00;102514.47;5001064;28;20513;-73
2022/04/29 04:04:05;;;;;;;13.40;6.85;;;;;;;3.90;100.00;102521.16;5016997;28;20034;-73
2022/04/29 04:09:17;;;;;;;23.42;7.82;;;;;;;3.96;100.00;102520.84;4972759;28;20038;-73
2022/04/29 04:11:43;;;;;;;16.30;8.07;;;;;;;3.99;100.00;102529.47;4984518;28;20550;-75
2022/04/29 04:14:10;;;;;;;24.98;8.40;;;;;;;4.01;100.00;102519.69;4957615;28;20038;-73
2022/04/29 04:16:42;;;;;;;27.88;9.30;;;;;;;4.08;100.00;102520.25;4978605;28;20940;-74
2022/04/29 04:19:09;;;;;;;20.77;8.20;;;;;;;4.10;100.00;102523.66;4965053;28;20121;-75
2022/04/29 04:21:34;;;;;;;;;;;;;;;4.13;100.00;102520.00;4982254;28;20049;-73
2022/04/29 04:24:01;;;;;;;23.48;6.82;;;;;;;4.11;100.00;102511.28;4969040;28;19948;-74
2022/04/29 04:26:26;;;;;;;20.03;7.67;;;;;;;4.12;100.00;102521.81;4981962;28;20705;-73
2022/04/29 04:28:54;;;;;;;18.13;7.68;;;;;;;4.13;100.00;102512.06;4978964;28;20037;-73
2022/04/29 04:31:24;;;;;;;21.75;7.88;;;;;;;4.19;100.00;102519.69;4971480;28;20486;-73
2022/04/29 04:33:51;;;;;;;14.13;6.97;;;;;;;4.11;100.00;102521.88;4979281;28;20034;-73
2022/04/29 04:36:17;;;;;;;17.80;7.90;;;;;;;4.18;100.00;102520.63;4986998;28;20471;-73
2022/04/29 04:38:45;;;;;;;19.33;7.30;;;;;;;4.20;100.00;102530.19;4980285;28;20048;-75
2022/04/29 04:41:14;;;;;;;19.83;6.88;;;;;;;4.35;100.00;102523.25;4971330;28;20033;-74
2022/04/29 04:43:40;;;;;;;16.48;7.03;;;;;;;4.38;100.00;102523.13;4999113;28;20057;-73
2022/04/29 04:46:08;;;;;;;16.33;7.30;;;;;;;4.51;100.00;102518.03;4969151;28;20026;-74
2022/04/29 04:48:41;;;;;;;24.13;8.43;;;;;;;4.69;100.00;102518.88;4986768;28;20046;-73
2022/04/29 04:51:39;;;;;;;18.60;7.00;;;;;;;4.83;100.00;102515.50;4979362;28;20560;-73
2022/04/29 04:54:08;;;;;;;16.10;7.57;;;;;;;4.90;100.00;102514.22;4972409;28;20026;-75
2022/04/29 04:56:33;;;;;;;17.60;6.40;;;;;;;5.05;100.00;102502.78;4981357;28;20030;-73
2022/04/29 04:58:58;;;;;;;15.50;6.17;;;;;;;5.13;100.00;102496.22;4993520;28;20281;-73
2022/04/29 05:01:25;;;;;;;19.00;7.25;;;;;;;5.30;100.00;102496.16;4980944;28;20084;-73
2022/04/29 05:04:09;;;;;;;16.83;6.18;;;;;;;5.50;100.00;102482.66;4976030;28;20057;-73
2022/04/29 05:06:47;;;;;;;16.55;6.10;;;;;;;6.16;100.00;102483.31;4995603;28;20053;-73
2022/04/29 05:09:13;;;;;;;18.80;7.32;;;;;;;6.92;100.00;102475.09;4977974;28;20056;-74
2022/04/29 05:11:39;;;;;;;11.27;5.27;;;;;;;7.54;100.00;102456.06;4972856;28;20031;-75
2022/04/29 05:14:09;;;;;;;17.23;5.40;;;;;;;8.07;100.00;102421.50;4982081;28;20563;-74
2022/04/29 05:16:37;;;;;;;14.70;5.50;;;;;;;7.90;100.00;102388.09;4974993;28;20026;-74
2022/04/29 05:19:21;;;;;;;15.77;6.30;;;;;;;7.87;100.00;102360.88;4998188;28;20032;-74
2022/04/29 05:21:47;;;;;;;19.23;5.65;;;;;;;7.75;100.00;102343.91;4978950;28;20039;-74
2022/04/29 05:24:12;;;;;;;10.50;4.73;;;;;;;7.95;100.00;102362.00;4981122;28;20049;-75
2022/04/29 05:27:07;;;;;;;12.73;5.72;;;;;;;7.65;100.00;102334.88;4983039;28;20056;-75
2022/04/29 05:29:59;;;;;;;15.95;6.53;;;;;;;7.11;100.00;102325.19;4977802;28;20093;-76
2022/04/29 05:32:25;;;;;;;12.07;5.65;;;;;;;6.95;100.00;102354.53;4995643;28;20034;-74
2022/04/29 05:35:11;;;;;;;12.00;5.43;;;;;;;7.46;100.00;102383.09;4990569;28;20026;-74
2022/04/29 05:37:55;;;;;;;17.67;5.80;;;;;;;8.41;100.00;102401.41;4991426;28;20049;-74
2022/04/29 05:43:08;;;;;;;11.30;5.35;;;;;;;9.00;100.00;102343.97;4988937;28;20565;-74
2022/04/29 05:45:33;;;;;;;6.57;4.87;;;;;;;9.56;100.00;102319.34;4948509;28;20031;-74
2022/04/29 05:47:59;;;;;;;12.90;4.38;;;;;;;9.56;100.00;102253.53;4984846;28;20554;-74
2022/04/29 05:50:28;;;;;;;10.52;4.65;;;;;;;9.76;100.00;102259.97;4981016;28;20850;-75
2022/04/29 05:52:54;;;;;;;10.93;4.75;;;;;;;9.72;98.42;102222.03;4986538;28;20054;-74
2022/04/29 05:55:20;;;;;;;13.13;5.07;;;;;;;9.62;98.29;102242.41;4980207;28;20022;-74
2022/04/29 05:57:45;;;;;;;7.43;4.00;;;;;;;10.22;99.49;102309.72;4988577;28;20491;-74
2022/04/29 06:00:12;;;;;;;11.27;5.32;;;;;;;9.48;96.15;102203.47;4955645;28;20042;-74
2022/04/29 06:02:43;;;;;;;7.68;4.85;;;;;;;9.38;99.07;102249.63;4980351;28;20457;-74
2022/04/29 06:05:10;;;;;;;13.50;4.40;;;;;;;9.45;100.00;102278.34;4979856;28;20065;-74
2022/04/29 06:07:39;;;;;;;17.73;5.53;;;;;;;9.03;100.00;102250.50;4963654;28;20077;-75
2022/04/29 06:10:06;;;;;;;8.57;4.32;;;;;;;8.43;100.00;102271.75;4978923;28;20026;-74
2022/04/29 06:12:38;;;;;;;8.82;4.40;;;;;;;8.06;100.00;102347.13;4988053;28;20022;-74
2022/04/29 06:15:13;;;;;;;9.70;4.18;;;;;;;7.91;100.00;102363.19;4971789;28;20122;-74
2022/04/29 06:17:58;;;;;;;16.63;5.00;;;;;;;8.35;100.00;102387.66;4993882;28;20038;-75
2022/04/29 06:20:42;;;;;;;7.35;4.38;;;;;;;8.29;100.00;102402.25;4989393;28;20517;-74
2022/04/29 06:23:13;;;;;;;14.13;3.97;;;;;;;8.07;100.00;102399.38;4989122;28;20050;-74
2022/04/29 06:25:38;;;;;;;9.90;4.83;;;;;;;8.28;100.00;102397.88;4971452;28;20034;-75
2022/04/29 06:28:04;;;;;;;10.63;4.97;;;;;;;8.51;100.00;102424.72;4979661;28;20026;-74
2022/04/29 06:30:31;;;;;;;8.43;4.38;;;;;;;8.85;100.00;102418.72;4979508;28;20041;-75
2022/04/29 06:33:10;;;;;;;8.13;4.15;;;;;;;8.94;100.00;102371.88;4970977;28;20029;-74
2022/04/29 06:35:42;;;;;;;11.30;3.90;;;;;;;8.97;100.00;102377.00;4979617;28;20038;-74
2022/04/29 06:38:12;;;;;;;8.73;3.78;;;;;;;9.24;100.00;102405.25;4987536;28;20487;-75
2022/04/29 06:41:03;;;;;;;12.20;4.10;;;;;;;9.11;100.00;102354.69;4987549;28;20523;-75
2022/04/29 06:43:43;;;;;;;8.73;3.85;;;;;;;9.33;100.00;102355.75;4979567;28;20092;-76
2022/04/29 06:46:27;;;;;;;9.27;4.00;;;;;;;9.50;100.00;102355.31;4988757;28;20048;-75
2022/04/29 06:49:11;;;;;;;9.68;4.13;;;;;;;9.17;100.00;102321.41;4987427;28;20053;-75
2022/04/29 06:51:55;;;;;;;11.85;4.40;;;;;;;9.38;100.00;102365.09;4988422;28;20108;-76
2022/04/29 06:54:26;;;;;;;12.55;3.83;;;;;;;9.44;99.82;102331.81;4979267;28;20031;-75
2022/04/29 06:56:59;;;;;;;17.58;3.95;;;;;;;9.69;99.34;102352.97;4955690;28;20030;-75
2022/04/29 06:59:26;;;;;;;13.73;4.43;;;;;;;9.52;100.00;102364.03;4977472;28;20041;-75
2022/04/29 07:01:51;;;;;;;13.32;4.25;;;;;;;9.93;97.28;102341.38;4985961;28;20054;-76
2022/04/29 07:04:17;;;;;;;8.07;4.10;;;;;;;10.29;96.16;102352.81;4986823;28;20581;-75
2022/04/29 07:06:42;;;;;;;14.55;3.78;;;;;;;10.39;91.64;102288.84;4978779;28;20483;-75
2022/04/29 07:09:08;;;;;;;7.75;3.30;;;;;;;10.29;88.86;102225.53;4978826;28;20092;-75
2022/04/29 07:11:52;;;;;;;9.32;3.47;;;;;;;9.78;91.93;102273.19;4973171;28;20045;-76
2022/04/29 07:14:26;;;;;;;11.55;5.97;;;;;;;10.03;93.60;102323.66;4978583;28;20591;-76
2022/04/29 07:16:59;;;;;;;9.93;3.60;;;;;;;10.01;92.82;102314.91;4970519;28;20038;-75
2022/04/29 07:19:38;;;;;;;10.45;4.32;;;;;;;10.05;91.35;102292.38;4955871;28;20189;-74
2022/04/29 07:22:05;;;;;;;6.07;3.25;;;;;;;10.07;91.71;102305.59;4986429;28;20030;-76
2022/04/29 07:24:33;;;;;;;11.90;3.85;;;;;;;9.90;90.53;102283.78;4983424;28;20053;-76
2022/04/29 07:27:00;;;;;;;7.47;4.00;;;;;;;9.73;88.82;102247.72;4970396;28;20026;-75
2022/04/29 07:29:26;;;;;;;8.23;3.25;;;;;;;9.06;89.95;102221.81;4970373;28;20026;-75
2022/04/29 07:31:57;;;;;;;5.05;2.90;;;;;;;9.17;91.39;102284.09;4954725;28;20705;-75
2022/04/29 07:43:31;;;;;;;9.02;3.63;;;;;;;10.62;85.04;102262.97;4977778;28;20065;-76
2022/04/29 07:45:58;;;;;;;7.82;3.13;;;;;;;10.60;83.32;102231.03;4977875;28;20054;-76
2022/04/29 07:48:27;;;;;;;6.60;3.75;;;;;;;10.56;81.15;102179.69;4987339;28;20042;-76
2022/04/29 07:50:53;;;;;;;6.07;3.20;;;;;;;10.82;81.92;102235.44;4977926;28;20034;-76
2022/04/29 07:53:18;;;;;;;9.97;3.30;;;;;;;11.18;79.83;102219.97;4978294;28;20039;-75
2022/04/29 07:55:44;;;;;;;9.23;3.58;;;;;;;11.48;76.63;102172.84;4977685;28;20108;-75
2022/04/29 07:58:10;;;;;;;;;;;;;;;11.91;76.19;102193.19;4978282;28;20549;-76
2022/04/29 08:00:38;;;;;;;;;;;;;;;12.03;72.88;102111.78;4978265;28;19910;-75
2022/04/29 08:03:05;;;;;;;17.00;5.07;;;;;;;10.91;71.50;101986.19;4985884;28;19918;-76
2022/04/29 08:05:54;;;;;;;10.23;3.15;;;;;;;10.41;73.74;102042.13;4977789;28;20019;-75
2022/04/29 08:08:20;;;;;;;10.25;4.28;;;;;;;10.57;76.22;102146.66;4977691;28;20034;-75
2022/04/29 08:10:46;;;;;;;8.57;2.67;;;;;;;10.84;75.40;102155.16;4977847;28;20034;-76
2022/04/29 08:13:12;;;;;;;6.93;3.10;;;;;;;11.25;72.75;102121.38;4977481;28;20590;-75
2022/04/29 08:16:13;;;;;;;10.05;2.83;;;;;;;12.30;69.88;102155.78;4995617;28;20092;-75
2022/04/29 08:19:03;;;;;;;8.57;2.85;;;;;;;13.44;67.10;102168.38;4969417;28;20498;-76
2022/04/29 08:21:48;;;;;;;10.05;4.10;;;;;;;13.22;66.37;102131.16;4977262;28;20043;-76
2022/04/29 08:24:14;;;;;;;6.53;2.50;;;;;;;13.74;63.48;102088.56;4977470;28;20590;-75
2022/04/29 08:26:40;;;;;;;9.02;2.92;;;;;;;14.09;61.10;102043.94;4969291;28;20117;-75
2022/04/29 08:29:06;;;;;;;6.47;2.22;;;;;;;14.51;60.77;102083.59;4976828;28;20126;-76
2022/04/29 08:31:31;;;;;;;9.23;3.43;;;;;;;13.92;59.27;101946.31;4968476;28;20018;-75
2022/04/29 08:33:57;;;;;;;5.53;2.97;;;;;;;12.73;60.83;101910.69;4976176;28;20026;-76
2022/04/29 08:36:24;;;;;;;10.00;3.25;;;;;;;13.13;60.86;101977.34;4977095;28;20032;-76
2022/04/29 08:38:51;;;;;;;10.70;2.72;;;;;;;13.84;61.03;102105.47;4952863;28;20103;-75
2022/04/29 08:41:19;;;;;;;8.30;3.13;;;;;;;14.63;59.43;102073.47;4986358;28;20545;-75
2022/04/29 08:43:48;;;;;;;8.48;3.42;;;;;;;14.14;59.47;102028.22;4976627;28;20069;-76
2022/04/29 08:46:20;;;;;;;6.53;2.28;;;;;;;15.14;56.90;102040.34;4974385;28;20019;-75
2022/04/29 08:49:01;;;;;;;11.43;3.10;;;;;;;15.43;55.19;101979.94;4973314;28;20026;-76
2022/04/29 08:51:27;;;;;;;8.27;3.15;;;;;;;14.20;55.51;101836.91;4968439;28;20792;-76
2022/04/29 08:53:52;;;;;;;5.23;2.23;;;;;;;13.31;60.08;101961.31;4985993;28;20025;-77
2022/04/29 08:59:03;;;;;;;5.68;2.97;;;;;;;12.09;63.11;101966.69;4978162;28;20050;-76
2022/04/29 09:01:30;;;;;;;6.05;2.45;;;;;;;12.67;62.61;102041.56;4986012;28;20070;-76
2022/04/29 09:03:55;;;;;;;4.28;3.15;;;;;;;13.73;59.70;102066.25;4984477;28;20038;-76
2022/04/29 09:06:21;;;;;;;6.65;2.60;;;;;;;13.57;56.33;101872.06;4960501;28;20407;-76
2022/04/29 09:08:48;;;;;;;;;;;;;;;14.28;56.88;102038.44;4983828;28;20049;-76
2022/04/29 09:11:23;;;;;;;;;;;;;;;15.25;55.31;102067.97;4986285;28;19941;-76
2022/04/29 09:13:49;;;;;;;5.50;2.67;;;;;;;15.25;53.44;101950.44;4986055;28;19913;-76
2022/04/29 09:16:14;;;;;;;7.93;2.63;;;;;;;15.92;54.47;102086.88;4952414;28;20033;-76
2022/04/29 09:18:53;;;;;;;8.18;2.88;;;;;;;15.86;55.47;102087.56;4952172;28;20125;-76
2022/04/29 09:21:25;;;;;;;10.25;2.75;;;;;;;14.69;53.03;101815.66;4976285;28;20034;-76
2022/04/29 09:23:56;;;;;;;8.35;2.97;;;;;;;14.40;55.14;101909.19;4968320;28;20572;-76
2022/04/29 09:27:00;;;;;;;5.57;2.45;;;;;;;15.35;54.78;102052.53;4983844;28;20038;-77
2022/04/29 09:29:57;;;;;;;8.98;2.72;;;;;;;15.75;52.44;101981.00;4985487;28;20213;-77
2022/04/29 09:32:49;;;;;;;8.20;2.45;;;;;;;15.76;52.05;101953.09;4982953;28;20188;-77
2022/04/29 09:35:42;;;;;;;6.95;2.72;;;;;;;14.20;51.50;101685.69;4981428;28;20101;-76
2022/04/29 09:40:55;;;;;;;4.75;3.20;;;;;;;15.07;52.05;101887.84;4985946;28;20038;-77
2022/04/29 09:43:50;;;;;;;9.05;2.53;;;;;;;15.94;51.34;101991.44;4969411;28;20096;-76
2022/04/29 09:46:24;;;;;;;7.05;2.53;;;;;;;16.98;49.55;102037.53;4983812;28;20846;-77
2022/04/29 09:49:03;;;;;;;6.85;3.13;;;;;;;17.51;48.72;102004.41;4989224;28;20469;-77
2022/04/29 09:51:51;;;;;;;5.95;2.63;;;;;;;17.39;47.24;101905.94;4955338;28;20407;-76
2022/04/29 09:54:22;;;;;;;6.00;3.15;;;;;;;17.59;46.07;101824.47;4971819;28;20049;-77
2022/04/29 09:57:14;;;;;;;5.45;2.40;;;;;;;17.27;47.23;101829.09;4980226;28;20044;-77
2022/04/29 09:59:40;;;;;;;2.88;1.70;;;;;;;16.52;48.00;101789.25;4994120;28;20061;-78
2022/04/29 10:02:09;;;;;;;3.88;2.47;;;;;;;16.92;47.52;101827.81;4967944;28;20150;-75
2022/04/29 10:04:38;;;;;;;4.53;1.83;;;;;;;17.48;47.16;101928.31;4980007;28;20101;-77
2022/04/29 10:07:05;;;;;;;5.18;1.50;;;;;;;16.50;48.34;101772.41;4988512;28;20033;-77
2022/04/29 10:09:33;;;;;;;4.32;2.10;;;;;;;16.66;48.71;101859.44;4989770;28;20036;-77
2022/04/29 10:12:02;;;;;;;4.82;2.17;;;;;;;16.74;47.40;101776.81;4972262;28;20022;-78
2022/04/29 10:14:31;;;;;;;7.70;1.92;;;;;;;17.54;47.32;101926.78;4985243;28;20022;-78
2022/04/29 10:23:09;;;;;;;8.15;2.30;;;;;;;16.91;48.10;101845.88;4980532;28;20031;-78
2022/04/29 10:25:38;;;;;;;3.88;2.03;;;;;;;15.75;48.82;101709.09;4965029;28;20548;-77
2022/04/29 10:28:04;;;;;;;5.80;2.08;;;;;;;15.67;47.75;101645.31;4982981;28;20032;-78
2022/04/29 10:30:35;;;;;;;4.10;1.83;;;;;;;16.84;47.60;101869.19;4977556;28;20041;-78
2022/04/29 10:33:03;;;;;;;6.72;2.10;;;;;;;16.59;45.24;101666.22;4982257;28;20113;-78
2022/04/29 10:35:50;;;;;;;4.85;1.90;;;;;;;17.75;45.59;101905.34;4957013;28;20038;-78
2022/04/29 10:38:21;;;;;;;3.65;2.10;;;;;;;17.90;43.69;101733.34;4972317;28;20038;-77
2022/04/29 10:41:07;;;;;;;3.42;2.10;;;;;;;17.48;45.38;101793.31;4989747;28;20045;-78
2022/04/29 10:43:36;;;;;;;6.25;2.33;;;;;;;17.27;44.28;101688.75;4971213;28;20118;-77
2022/04/29 10:46:15;;;;;;;7.00;2.63;;;;;;;17.88;43.66;101729.16;4966444;28;20077;-78
2022/04/29 10:48:52;;;;;;;5.28;2.30;;;;;;;17.66;43.82;101720.91;4964187;28;20061;-78
2022/04/29 10:51:36;;;;;;;7.20;2.92;;;;;;;17.93;44.38;101791.56;4979960;28;20042;-77
2022/04/29 10:54:34;;;;;;;5.05;2.50;;;;;;;17.73;43.91;101689.44;4971478;28;20041;-77
2022/04/29 10:57:18;;;;;;;8.38;2.88;;;;;;;18.58;43.08;101799.91;4982637;28;20100;-77
2022/04/29 11:00:00;;;;;;;8.23;2.17;;;;;;;19.29;43.22;101927.28;4985200;28;20451;-78
2022/04/29 11:02:32;;;;;;;6.78;2.40;;;;;;;19.52;41.79;101770.03;4989229;28;20978;-78
2022/04/29 11:05:03;;;;;;;4.60;1.90;;;;;;;19.74;41.41;101796.06;4988299;28;20030;-78
2022/04/29 11:07:36;;;;;;;7.78;2.80;;;;;;;19.48;42.20;101798.53;4989904;28;20478;-78
2022/04/29 11:10:05;;;;;;;;;;;;;;;19.12;41.47;101673.09;4972162;28;20053;-77
2022/04/29 11:12:37;;;;;;;8.77;2.50;;;;;;;19.17;42.67;101788.88;4970845;28;19914;-77
2022/04/29 11:15:23;;;;;;;5.68;2.53;;;;;;;18.96;42.32;101700.44;4991080;28;20133;-77
2022/04/29 11:18:14;;;;;;;5.88;2.63;;;;;;;18.63;41.68;101597.31;4977905;28;20062;-77
2022/04/29 11:20:43;;;;;;;8.30;3.22;;;;;;;17.57;44.67;101629.41;4970284;28;20034;-78
2022/04/29 11:25:59;;;;;;;5.78;2.50;;;;;;;18.33;43.15;101695.63;4985850;28;20056;-77
2022/04/29 11:28:37;;;;;;;8.02;3.60;;;;;;;17.67;43.98;101624.53;4987082;28;20038;-77
2022/04/29 11:31:17;;;;;;;6.22;3.22;;;;;;;17.55;43.55;101556.69;4976597;28;20077;-78
2022/04/29 11:33:43;;;;;;;10.37;3.03;;;;;;;16.66;45.03;101530.50;4971052;28;20053;-78
2022/04/29 11:36:13;;;;;;;4.97;3.03;;;;;;;17.24;45.11;101645.97;4967773;28;20278;-77
2022/04/29 11:38:41;;;;;;;7.15;3.15;;;;;;;17.97;43.98;101717.22;4968299;28;20084;-77
2022/04/29 11:41:07;;;;;;;6.93;3.47;;;;;;;18.48;44.04;101775.88;4954634;28;20059;-76
2022/04/29 11:43:33;;;;;;;5.47;3.13;;;;;;;17.82;43.31;101598.38;4970660;28;20403;-77
2022/04/29 11:46:07;;;;;;;4.97;2.80;;;;;;;19.39;42.36;101862.84;4970858;28;20058;-78
2022/04/29 11:48:37;;;;;;;4.95;2.80;;;;;;;18.26;42.84;101629.00;4952160;28;20062;-76
2022/04/29 11:51:04;;;;;;;5.37;3.20;;;;;;;18.16;44.52;101755.50;4987061;28;20070;-77
2022/04/29 11:53:30;;;;;;;4.85;2.78;;;;;;;18.60;42.45;101700.50;4989662;28;20547;-78
2022/04/29 11:55:55;;;;;;;5.90;3.00;;;;;;;17.61;43.78;101576.72;4955620;28;20107;-77
2022/04/29 11:58:21;;;;;;;6.28;3.20;;;;;;;18.62;43.45;101756.06;4990228;28;20034;-76
2022/04/29 12:00:51;;;;;;;8.82;4.28;;;;;;;18.09;42.15;101550.88;4988772;28;20045;-77
2022/04/29 12:03:25;;;;;;;7.93;3.95;;;;;;;18.12;42.56;101587.47;4983254;28;20080;-78
2022/04/29 12:05:51;;;;;;;9.48;3.25;;;;;;;17.73;43.81;101621.09;4985340;28;20046;-78
2022/04/29 12:08:18;;;;;;;7.80;4.07;;;;;;;17.61;44.08;101603.72;4979550;28;20026;-76
2022/04/29 12:10:48;;;;;;;6.50;2.65;;;;;;;18.37;43.71;101712.28;4971855;28;20038;-78
2022/04/29 12:13:14;;;;;;;6.47;3.47;;;;;;;19.05;42.24;101725.50;4994321;28;20027;-78